Terminal Aerodrome Forecast
Issued by NWS

Home | Current Version | Previous Version | Text Only | Print | Product List | Glossary On
Versions: 1 2 3 4 5 6 7 8 9 10 11 12
000
FTUS45 KABQ 042346
TAFSAF
TAF
KSAF 042346Z 0500/0524 24006KT P6SM -RA BKN070
     FM050100 16007KT P6SM VCSH BKN060
      TEMPO 0506/0510 5SM BR OVC030
     FM051600 23008KT P6SM SCT050
     FM052100 23011KT P6SM VCTS BKN090CB=

USA.gov is the U.S. government's official web portal to all federal, state and local government web resources and services.